sensor_id;sensor_type;location;lat;lon;timestamp;pressure;altitude;pressure_sealevel;temperature;humidity
68941;BME280;55982;51.476;7.552;2024-01-16T00:01:02;98933.88;;;2.24;100.00
68941;BME280;55982;51.476;7.552;2024-01-16T00:03:28;98933.13;;;2.16;100.00
68941;BME280;55982;51.476;7.552;2024-01-16T00:05:53;98930.63;;;2.10;100.00
68941;BME280;55982;51.476;7.552;2024-01-16T00:08:18;98931.44;;;2.15;100.00
68941;BME280;55982;51.476;7.552;2024-01-16T00:10:44;98938.34;;;2.10;100.00
68941;BME280;55982;51.476;7.552;2024-01-16T00:13:09;98936.53;;;2.18;100.00
68941;BME280;55982;51.476;7.552;2024-01-16T00:15:34;98941.81;;;2.09;100.00
68941;BME280;55982;51.476;7.552;2024-01-16T00:18:00;98938.34;;;2.10;100.00
68941;BME280;55982;51.476;7.552;2024-01-16T00:20:25;98940.00;;;2.15;100.00
68941;BME280;55982;51.476;7.552;2024-01-16T00:22:51;98945.06;;;2.23;100.00
68941;BME280;55982;51.476;7.552;2024-01-16T00:25:16;98945.97;;;2.20;100.00
68941;BME280;55982;51.476;7.552;2024-01-16T00:27:44;98950.19;;;2.26;100.00
68941;BME280;55982;51.476;7.552;2024-01-16T00:30:10;98957.03;;;2.27;100.00
68941;BME280;55982;51.476;7.552;2024-01-16T00:32:35;98956.94;;;2.33;100.00
68941;BME280;55982;51.476;7.552;2024-01-16T00:35:01;98955.50;;;2.14;100.00
68941;BME280;55982;51.476;7.552;2024-01-16T00:37:26;98962.25;;;2.24;100.00
68941;BME280;55982;51.476;7.552;2024-01-16T00:39:51;98962.47;;;2.09;100.00
68941;BME280;55982;51.476;7.552;2024-01-16T00:42:17;98966.81;;;2.05;100.00
68941;BME280;55982;51.476;7.552;2024-01-16T00:44:42;98964.00;;;2.22;100.00
68941;BME280;55982;51.476;7.552;2024-01-16T00:47:07;98971.16;;;2.02;100.00
68941;BME280;55982;51.476;7.552;2024-01-16T00:49:32;98962.47;;;2.09;100.00
68941;BME280;55982;51.476;7.552;2024-01-16T00:51:57;98971.06;;;2.08;100.00
68941;BME280;55982;51.476;7.552;2024-01-16T00:54:23;98966.63;;;2.17;100.00
68941;BME280;55982;51.476;7.552;2024-01-16T00:56:48;98972.78;;;2.06;100.00
68941;BME280;55982;51.476;7.552;2024-01-16T00:59:13;98970.34;;;1.97;100.00
68941;BME280;55982;51.476;7.552;2024-01-16T01:01:39;98979.81;;;1.98;100.00
68941;BME280;55982;51.476;7.552;2024-01-16T01:04:04;98974.59;;;2.01;100.00
68941;BME280;55982;51.476;7.552;2024-01-16T01:06:29;98980.63;;;2.00;100.00
68941;BME280;55982;51.476;7.552;2024-01-16T01:08:55;98991.78;;;2.00;100.00
68941;BME280;55982;51.476;7.552;2024-01-16T01:11:20;98992.63;;;2.04;100.00
68941;BME280;55982;51.476;7.552;2024-01-16T01:13:45;98994.28;;;2.09;100.00
68941;BME280;55982;51.476;7.552;2024-01-16T01:16:11;98995.09;;;2.10;100.00
68941;BME280;55982;51.476;7.552;2024-01-16T01:18:36;98996.91;;;2.05;100.00
68941;BME280;55982;51.476;7.552;2024-01-16T01:21:01;98996.00;;;2.06;100.00
68941;BME280;55982;51.476;7.552;2024-01-16T01:23:27;98993.56;;;1.97;100.00
68941;BME280;55982;51.476;7.552;2024-01-16T01:25:52;98992.53;;;2.10;100.00
68941;BME280;55982;51.476;7.552;2024-01-16T01:28:17;99004.56;;;2.11;100.00
68941;BME280;55982;51.476;7.552;2024-01-16T01:30:43;98997.09;;;1.86;100.00
68941;BME280;55982;51.476;7.552;2024-01-16T01:33:08;98995.47;;;1.79;100.00
68941;BME280;55982;51.476;7.552;2024-01-16T01:35:33;98999.03;;;1.69;100.00
68941;BME280;55982;51.476;7.552;2024-01-16T01:37:59;99004.31;;;1.59;100.00
68941;BME280;55982;51.476;7.552;2024-01-16T01:40:24;98997.50;;;1.50;100.00
68941;BME280;55982;51.476;7.552;2024-01-16T01:42:49;99009.38;;;1.66;100.00
68941;BME280;55982;51.476;7.552;2024-01-16T01:45:14;99014.53;;;1.66;100.00
68941;BME280;55982;51.476;7.552;2024-01-16T01:47:40;99007.66;;;1.65;100.00
68941;BME280;55982;51.476;7.552;2024-01-16T01:50:07;99010.16;;;1.74;100.00
68941;BME280;55982;51.476;7.552;2024-01-16T01:52:33;99019.47;;;1.84;100.00
68941;BME280;55982;51.476;7.552;2024-01-16T01:54:58;99019.47;;;1.88;100.00
68941;BME280;55982;51.476;7.552;2024-01-16T01:57:24;99023.00;;;1.77;100.00
68941;BME280;55982;51.476;7.552;2024-01-16T01:59:49;99012.63;;;1.83;100.00
68941;BME280;55982;51.476;7.552;2024-01-16T02:02:15;99009.16;;;1.84;100.00
68941;BME280;55982;51.476;7.552;2024-01-16T02:04:41;99019.56;;;1.78;100.00
68941;BME280;55982;51.476;7.552;2024-01-16T02:07:08;99020.41;;;1.80;100.00
68941;BME280;55982;51.476;7.552;2024-01-16T02:09:34;99012.69;;;1.77;100.00
68941;BME280;55982;51.476;7.552;2024-01-16T02:11:59;99021.25;;;1.79;100.00
68941;BME280;55982;51.476;7.552;2024-01-16T02:14:25;99019.56;;;1.78;100.00
68941;BME280;55982;51.476;7.552;2024-01-16T02:16:50;99012.69;;;1.80;100.00
68941;BME280;55982;51.476;7.552;2024-01-16T02:19:16;99016.03;;;1.85;100.00
68941;BME280;55982;51.476;7.552;2024-01-16T02:21:47;99019.47;;;1.88;100.00
68941;BME280;55982;51.476;7.552;2024-01-16T02:24:16;99025.47;;;1.88;100.00
68941;BME280;55982;51.476;7.552;2024-01-16T02:26:42;99019.56;;;1.78;100.00
68941;BME280;55982;51.476;7.552;2024-01-16T02:29:07;99011.75;;;1.83;100.00
68941;BME280;55982;51.476;7.552;2024-01-16T02:31:33;99015.19;;;1.85;100.00
68941;BME280;55982;51.476;7.552;2024-01-16T02:33:58;99009.16;;;1.84;100.00
68941;BME280;55982;51.476;7.552;2024-01-16T02:36:24;99017.84;;;1.77;100.00
68941;BME280;55982;51.476;7.552;2024-01-16T02:38:49;99011.00;;;1.76;100.00
68941;BME280;55982;51.476;7.552;2024-01-16T02:41:15;99014.25;;;1.91;100.00
68941;BME280;55982;51.476;7.552;2024-01-16T02:43:41;99022.81;;;1.93;100.00
68941;BME280;55982;51.476;7.552;2024-01-16T02:46:06;99029.78;;;1.88;100.00
68941;BME280;55982;51.476;7.552;2024-01-16T02:48:31;99022.88;;;1.86;100.00
68941;BME280;55982;51.476;7.552;2024-01-16T02:50:56;99028.03;;;1.86;100.00
68941;BME280;55982;51.476;7.552;2024-01-16T02:53:22;99011.75;;;1.83;100.00
68941;BME280;55982;51.476;7.552;2024-01-16T02:55:47;99033.13;;;1.96;100.00
68941;BME280;55982;51.476;7.552;2024-01-16T02:58:12;99026.41;;;1.79;100.00
68941;BME280;55982;51.476;7.552;2024-01-16T03:00:37;99020.34;;;1.85;100.00
68941;BME280;55982;51.476;7.552;2024-01-16T03:03:03;99015.97;;;1.92;100.00
68941;BME280;55982;51.476;7.552;2024-01-16T03:05:28;99019.38;;;1.94;100.00
68941;BME280;55982;51.476;7.552;2024-01-16T03:07:53;99023.59;;;2.01;100.00
68941;BME280;55982;51.476;7.552;2024-01-16T03:10:18;99021.09;;;1.95;100.00
68941;BME280;55982;51.476;7.552;2024-01-16T03:12:43;99021.13;;;1.92;100.00
68941;BME280;55982;51.476;7.552;2024-01-16T03:15:09;99028.88;;;1.92;100.00
68941;BME280;55982;51.476;7.552;2024-01-16T03:17:34;99021.91;;;2.00;100.00
68941;BME280;55982;51.476;7.552;2024-01-16T03:19:59;99028.72;;;2.04;100.00
68941;BME280;55982;51.476;7.552;2024-01-16T03:22:25;99029.72;;;1.94;100.00
68941;BME280;55982;51.476;7.552;2024-01-16T03:24:50;99031.38;;;1.98;100.00
68941;BME280;55982;51.476;7.552;2024-01-16T03:27:15;99033.88;;;2.04;100.00
68941;BME280;55982;51.476;7.552;2024-01-16T03:29:41;99025.25;;;2.06;100.00
68941;BME280;55982;51.476;7.552;2024-01-16T03:32:06;99024.38;;;2.09;100.00
68941;BME280;55982;51.476;7.552;2024-01-16T03:34:31;99020.91;;;2.10;100.00
68941;BME280;55982;51.476;7.552;2024-01-16T03:36:57;99022.63;;;2.08;100.00
68941;BME280;55982;51.476;7.552;2024-01-16T03:39:22;99024.44;;;2.03;100.00
68941;BME280;55982;51.476;7.552;2024-01-16T03:41:47;99027.72;;;2.14;100.00
68941;BME280;55982;51.476;7.552;2024-01-16T03:44:13;99028.63;;;2.10;100.00
68941;BME280;55982;51.476;7.552;2024-01-16T03:46:38;99027.78;;;2.08;100.00
68941;BME280;55982;51.476;7.552;2024-01-16T03:49:03;99031.25;;;2.07;100.00
68941;BME280;55982;51.476;7.552;2024-01-16T03:51:28;99031.19;;;2.13;100.00
68941;BME280;55982;51.476;7.552;2024-01-16T03:53:53;99041.47;;;2.16;100.00
68941;BME280;55982;51.476;7.552;2024-01-16T03:56:19;99031.94;;;2.19;100.00
68941;BME280;55982;51.476;7.552;2024-01-16T03:58:44;99030.28;;;2.17;100.00
68941;BME280;55982;51.476;7.552;2024-01-16T04:01:09;99031.06;;;2.22;100.00
68941;BME280;55982;51.476;7.552;2024-01-16T04:03:34;99037.13;;;2.19;100.00
68941;BME280;55982;51.476;7.552;2024-01-16T04:06:00;99029.28;;;2.27;100.00
68941;BME280;55982;51.476;7.552;2024-01-16T04:08:25;99035.44;;;2.15;100.00
68941;BME280;55982;51.476;7.552;2024-01-16T04:10:50;99031.03;;;2.23;100.00
68941;BME280;55982;51.476;7.552;2024-01-16T04:13:15;99026.69;;;2.27;100.00
68941;BME280;55982;51.476;7.552;2024-01-16T04:15:41;99032.69;;;2.29;100.00
68941;BME280;55982;51.476;7.552;2024-01-16T04:18:06;99023.19;;;2.31;100.00
68941;BME280;55982;51.476;7.552;2024-01-16T04:20:32;99025.06;;;2.21;100.00
68941;BME280;55982;51.476;7.552;2024-01-16T04:22:57;99018.31;;;2.10;100.00
68941;BME280;55982;51.476;7.552;2024-01-16T04:25:23;99024.13;;;2.27;100.00
68941;BME280;55982;51.476;7.552;2024-01-16T04:27:48;99024.25;;;2.18;100.00
68941;BME280;55982;51.476;7.552;2024-01-16T04:30:14;99020.75;;;2.22;100.00
68941;BME280;55982;51.476;7.552;2024-01-16T04:32:39;99023.38;;;2.17;100.00
68941;BME280;55982;51.476;7.552;2024-01-16T04:35:04;99018.16;;;2.22;100.00
68941;BME280;55982;51.476;7.552;2024-01-16T04:37:29;99021.63;;;2.21;100.00
68941;BME280;55982;51.476;7.552;2024-01-16T04:39:55;99019.06;;;2.21;100.00
68941;BME280;55982;51.476;7.552;2024-01-16T04:42:20;99019.06;;;2.21;100.00
68941;BME280;55982;51.476;7.552;2024-01-16T04:44:45;99023.19;;;2.34;100.00
68941;BME280;55982;51.476;7.552;2024-01-16T04:47:10;99022.41;;;2.26;100.00
68941;BME280;55982;51.476;7.552;2024-01-16T04:49:36;99018.94;;;2.27;100.00
68941;BME280;55982;51.476;7.552;2024-01-16T04:52:02;99020.69;;;2.28;100.00
68941;BME280;55982;51.476;7.552;2024-01-16T04:54:28;99017.31;;;2.23;100.00
68941;BME280;55982;51.476;7.552;2024-01-16T04:56:53;99019.91;;;2.23;100.00
68941;BME280;55982;51.476;7.552;2024-01-16T04:59:18;99015.59;;;2.22;100.00
68941;BME280;55982;51.476;7.552;2024-01-16T05:01:43;99017.22;;;2.29;100.00
68941;BME280;55982;51.476;7.552;2024-01-16T05:04:09;99014.66;;;2.27;100.00
68941;BME280;55982;51.476;7.552;2024-01-16T05:06:35;99015.66;;;2.16;100.00
68941;BME280;55982;51.476;7.552;2024-01-16T05:09:00;99013.06;;;2.17;100.00
68941;BME280;55982;51.476;7.552;2024-01-16T05:11:25;99009.59;;;2.20;100.00
68941;BME280;55982;51.476;7.552;2024-01-16T05:13:51;99012.94;;;2.28;100.00
68941;BME280;55982;51.476;7.552;2024-01-16T05:16:22;99007.03;;;2.20;100.00
68941;BME280;55982;51.476;7.552;2024-01-16T05:18:47;99003.59;;;2.18;100.00
68941;BME280;55982;51.476;7.552;2024-01-16T05:21:12;99002.72;;;2.20;100.00
68941;BME280;55982;51.476;7.552;2024-01-16T05:23:38;98997.69;;;2.11;100.00
68941;BME280;55982;51.476;7.552;2024-01-16T05:26:03;99003.63;;;2.16;100.00
68941;BME280;55982;51.476;7.552;2024-01-16T05:28:28;99007.16;;;2.09;100.00
68941;BME280;55982;51.476;7.552;2024-01-16T05:30:53;99005.41;;;2.13;100.00
68941;BME280;55982;51.476;7.552;2024-01-16T05:33:19;99002.75;;;2.19;100.00
68941;BME280;55982;51.476;7.552;2024-01-16T05:35:44;99001.78;;;2.26;100.00
68941;BME280;55982;51.476;7.552;2024-01-16T05:38:09;98999.22;;;2.24;100.00
68941;BME280;55982;51.476;7.552;2024-01-16T05:40:37;99003.53;;;2.24;100.00
68941;BME280;55982;51.476;7.552;2024-01-16T05:43:02;98992.34;;;2.23;100.00
68941;BME280;55982;51.476;7.552;2024-01-16T05:45:28;98993.06;;;2.36;100.00
68941;BME280;55982;51.476;7.552;2024-01-16T05:47:53;98992.22;;;2.34;100.00
68941;BME280;55982;51.476;7.552;2024-01-16T05:50:18;98992.09;;;2.43;100.00
68941;BME280;55982;51.476;7.552;2024-01-16T05:52:51;98987.84;;;2.39;100.00
68941;BME280;55982;51.476;7.552;2024-01-16T05:55:16;98986.22;;;2.32;100.00
68941;BME280;55982;51.476;7.552;2024-01-16T05:57:41;98982.66;;;2.39;100.00
68941;BME280;55982;51.476;7.552;2024-01-16T06:00:08;98987.91;;;2.36;100.00
68941;BME280;55982;51.476;7.552;2024-01-16T06:02:33;98984.47;;;2.34;100.00
68941;BME280;55982;51.476;7.552;2024-01-16T06:04:59;98979.31;;;2.34;100.00
68941;BME280;55982;51.476;7.552;2024-01-16T06:07:24;98982.84;;;2.27;100.00
68941;BME280;55982;51.476;7.552;2024-01-16T06:09:49;98985.59;;;2.15;100.00
68941;BME280;55982;51.476;7.552;2024-01-16T06:12:15;98989.88;;;2.16;100.00
68941;BME280;55982;51.476;7.552;2024-01-16T06:14:40;98994.03;;;2.26;100.00
68941;BME280;55982;51.476;7.552;2024-01-16T06:17:05;98991.41;;;2.29;100.00
68941;BME280;55982;51.476;7.552;2024-01-16T06:19:31;98984.56;;;2.28;100.00
68941;BME280;55982;51.476;7.552;2024-01-16T06:21:56;98986.22;;;2.32;100.00
68941;BME280;55982;51.476;7.552;2024-01-16T06:24:22;98998.31;;;2.27;100.00
68941;BME280;55982;51.476;7.552;2024-01-16T06:26:47;98978.59;;;2.24;100.00
68941;BME280;55982;51.476;7.552;2024-01-16T06:29:12;98983.66;;;2.32;100.00
68941;BME280;55982;51.476;7.552;2024-01-16T06:31:37;98986.47;;;2.12;100.00
68941;BME280;55982;51.476;7.552;2024-01-16T06:34:03;99001.84;;;2.23;100.00
68941;BME280;55982;51.476;7.552;2024-01-16T06:36:28;98984.59;;;2.25;100.00
68941;BME280;55982;51.476;7.552;2024-01-16T06:38:53;98990.56;;;2.28;100.00
68941;BME280;55982;51.476;7.552;2024-01-16T06:41:19;98986.22;;;2.32;100.00
68941;BME280;55982;51.476;7.552;2024-01-16T06:43:44;98986.38;;;2.20;100.00
68941;BME280;55982;51.476;7.552;2024-01-16T06:46:09;98983.03;;;2.12;100.00
68941;BME280;55982;51.476;7.552;2024-01-16T06:48:35;98991.47;;;2.26;100.00
68941;BME280;55982;51.476;7.552;2024-01-16T06:51:00;98987.97;;;2.30;100.00
68941;BME280;55982;51.476;7.552;2024-01-16T06:53:26;98991.59;;;2.17;100.00
68941;BME280;55982;51.476;7.552;2024-01-16T06:55:51;98998.50;;;2.15;100.00
68941;BME280;55982;51.476;7.552;2024-01-16T06:58:18;99000.13;;;2.22;100.00
68941;BME280;55982;51.476;7.552;2024-01-16T07:00:43;98983.75;;;2.24;100.00
68941;BME280;55982;51.476;7.552;2024-01-16T07:03:09;98994.94;;;2.22;100.00
68941;BME280;55982;51.476;7.552;2024-01-16T07:05:35;98994.09;;;2.21;100.00
68941;BME280;55982;51.476;7.552;2024-01-16T07:08:00;99001.91;;;2.17;100.00
68941;BME280;55982;51.476;7.552;2024-01-16T07:10:25;98994.19;;;2.14;100.00
68941;BME280;55982;51.476;7.552;2024-01-16T07:12:51;99003.66;;;2.15;100.00
68941;BME280;55982;51.476;7.552;2024-01-16T07:15:16;99002.75;;;2.16;100.00
68941;BME280;55982;51.476;7.552;2024-01-16T07:17:42;99008.84;;;2.12;100.00
68941;BME280;55982;51.476;7.552;2024-01-16T07:20:07;99014.94;;;2.05;100.00
68941;BME280;55982;51.476;7.552;2024-01-16T07:22:33;99022.66;;;2.09;100.00
68941;BME280;55982;51.476;7.552;2024-01-16T07:24:59;99022.63;;;2.08;100.00
68941;BME280;55982;51.476;7.552;2024-01-16T07:27:24;99031.22;;;2.10;100.00
68941;BME280;55982;51.476;7.552;2024-01-16T07:29:49;99024.47;;;2.00;100.00
68941;BME280;55982;51.476;7.552;2024-01-16T07:32:14;99029.53;;;2.06;100.00
68941;BME280;55982;51.476;7.552;2024-01-16T07:34:40;99035.53;;;2.08;100.00
68941;BME280;55982;51.476;7.552;2024-01-16T07:37:05;99033.00;;;2.05;100.00
68941;BME280;55982;51.476;7.552;2024-01-16T07:39:30;99034.56;;;2.18;100.00
68941;BME280;55982;51.476;7.552;2024-01-16T07:41:55;99040.69;;;2.09;100.00
68941;BME280;55982;51.476;7.552;2024-01-16T07:44:21;99038.88;;;2.16;100.00
68941;BME280;55982;51.476;7.552;2024-01-16T07:46:46;99049.09;;;2.26;100.00
68941;BME280;55982;51.476;7.552;2024-01-16T07:49:11;99048.34;;;2.17;100.00
68941;BME280;55982;51.476;7.552;2024-01-16T07:51:36;99049.13;;;2.22;100.00
68941;BME280;55982;51.476;7.552;2024-01-16T07:54:06;99049.13;;;2.22;100.00
68941;BME280;55982;51.476;7.552;2024-01-16T07:56:34;99049.97;;;2.24;100.00
68941;BME280;55982;51.476;7.552;2024-01-16T07:58:59;99044.78;;;2.25;100.00
68941;BME280;55982;51.476;7.552;2024-01-16T08:01:25;99041.50;;;2.13;100.00
68941;BME280;55982;51.476;7.552;2024-01-16T08:03:50;99044.78;;;2.25;100.00
68941;BME280;55982;51.476;7.552;2024-01-16T08:06:15;99044.94;;;2.12;100.00
68941;BME280;55982;51.476;7.552;2024-01-16T08:08:40;99048.34;;;2.17;100.00
68941;BME280;55982;51.476;7.552;2024-01-16T08:11:06;99044.84;;;2.22;100.00
68941;BME280;55982;51.476;7.552;2024-01-16T08:13:32;99036.22;;;2.22;100.00
68941;BME280;55982;51.476;7.552;2024-01-16T08:15:57;99031.16;;;2.16;100.00
68941;BME280;55982;51.476;7.552;2024-01-16T08:18:23;99043.38;;;2.02;100.00
68941;BME280;55982;51.476;7.552;2024-01-16T08:20:48;99044.94;;;2.12;100.00
68941;BME280;55982;51.476;7.552;2024-01-16T08:23:13;99048.28;;;2.20;100.00
68941;BME280;55982;51.476;7.552;2024-01-16T08:25:38;99047.25;;;2.33;100.00
68941;BME280;55982;51.476;7.552;2024-01-16T08:28:03;99039.59;;;2.27;100.00
68941;BME280;55982;51.476;7.552;2024-01-16T08:30:30;99042.09;;;2.34;100.00
68941;BME280;55982;51.476;7.552;2024-01-16T08:32:55;99046.34;;;2.37;100.00
68941;BME280;55982;51.476;7.552;2024-01-16T08:35:20;99044.59;;;2.39;100.00
68941;BME280;55982;51.476;7.552;2024-01-16T08:37:45;99036.22;;;2.22;100.00
68941;BME280;55982;51.476;7.552;2024-01-16T08:40:11;99048.28;;;2.23;100.00
68941;BME280;55982;51.476;7.552;2024-01-16T08:42:36;99049.19;;;2.16;100.00
68941;BME280;55982;51.476;7.552;2024-01-16T08:45:02;99048.16;;;2.29;100.00
68941;BME280;55982;51.476;7.552;2024-01-16T08:47:27;99050.09;;;2.15;100.00
68941;BME280;55982;51.476;7.552;2024-01-16T08:49:53;99060.28;;;2.24;100.00
68941;BME280;55982;51.476;7.552;2024-01-16T08:52:18;99050.69;;;2.33;100.00
68941;BME280;55982;51.476;7.552;2024-01-16T08:54:43;99053.34;;;2.29;100.00
68941;BME280;55982;51.476;7.552;2024-01-16T08:57:09;99060.28;;;2.24;100.00
68941;BME280;55982;51.476;7.552;2024-01-16T08:59:35;99060.16;;;2.36;100.00
68941;BME280;55982;51.476;7.552;2024-01-16T09:02:00;99059.28;;;2.35;100.00
68941;BME280;55982;51.476;7.552;2024-01-16T09:04:26;99058.50;;;2.29;100.00
68941;BME280;55982;51.476;7.552;2024-01-16T09:06:51;99066.19;;;2.33;100.00
68941;BME280;55982;51.476;7.552;2024-01-16T09:09:17;99066.22;;;2.32;100.00
68941;BME280;55982;51.476;7.552;2024-01-16T09:11:42;99060.16;;;2.36;100.00
68941;BME280;55982;51.476;7.552;2024-01-16T09:14:07;99064.28;;;2.49;100.00
68941;BME280;55982;51.476;7.552;2024-01-16T09:16:33;99050.59;;;2.41;100.00
68941;BME280;55982;51.476;7.552;2024-01-16T09:18:59;99059.97;;;2.48;100.00
68941;BME280;55982;51.476;7.552;2024-01-16T09:21:24;99058.41;;;2.38;100.00
68941;BME280;55982;51.476;7.552;2024-01-16T09:23:50;99064.28;;;2.47;100.00
68941;BME280;55982;51.476;7.552;2024-01-16T09:26:15;99065.06;;;2.55;100.00
68941;BME280;55982;51.476;7.552;2024-01-16T09:28:40;99065.38;;;2.30;100.00
68941;BME280;55982;51.476;7.552;2024-01-16T09:31:06;99062.66;;;2.40;100.00
68941;BME280;55982;51.476;7.552;2024-01-16T09:33:31;99060.28;;;2.24;100.00
68941;BME280;55982;51.476;7.552;2024-01-16T09:35:56;99070.63;;;2.22;100.00
68941;BME280;55982;51.476;7.552;2024-01-16T09:38:22;99060.22;;;2.27;100.00
68941;BME280;55982;51.476;7.552;2024-01-16T09:40:47;99060.16;;;2.33;100.00
68941;BME280;55982;51.476;7.552;2024-01-16T09:43:12;99054.94;;;2.39;100.00
68941;BME280;55982;51.476;7.552;2024-01-16T09:45:38;99063.34;;;2.53;100.00
68941;BME280;55982;51.476;7.552;2024-01-16T09:48:03;99060.72;;;2.57;100.00
68941;BME280;55982;51.476;7.552;2024-01-16T09:50:29;99058.13;;;2.56;100.00
68941;BME280;55982;51.476;7.552;2024-01-16T09:52:55;99052.88;;;2.65;100.00
68941;BME280;55982;51.476;7.552;2024-01-16T09:55:20;99054.41;;;2.78;100.00
68941;BME280;55982;51.476;7.552;2024-01-16T09:57:46;99037.41;;;2.62;100.00
68941;BME280;55982;51.476;7.552;2024-01-16T10:00:16;99045.91;;;2.70;100.00
68941;BME280;55982;51.476;7.552;2024-01-16T10:02:42;99050.06;;;2.80;100.00
68941;BME280;55982;51.476;7.552;2024-01-16T10:05:11;99053.38;;;2.90;100.00
68941;BME280;55982;51.476;7.552;2024-01-16T10:07:40;99056.94;;;2.81;100.00
68941;BME280;55982;51.476;7.552;2024-01-16T10:10:05;99050.09;;;2.77;100.00
68941;BME280;55982;51.476;7.552;2024-01-16T10:12:31;99047.50;;;2.77;100.00
68941;BME280;55982;51.476;7.552;2024-01-16T10:14:57;99045.84;;;2.73;100.00
68941;BME280;55982;51.476;7.552;2024-01-16T10:17:22;99037.25;;;2.74;100.00
68941;BME280;55982;51.476;7.552;2024-01-16T10:19:59;99037.94;;;2.85;100.00
68941;BME280;55982;51.476;7.552;2024-01-16T10:22:29;99032.31;;;2.56;100.00
68941;BME280;55982;51.476;7.552;2024-01-16T10:25:04;99039.03;;;2.67;100.00
68941;BME280;55982;51.476;7.552;2024-01-16T10:27:29;99031.22;;;2.73;100.00
68941;BME280;55982;51.476;7.552;2024-01-16T10:29:56;99031.50;;;2.55;100.00
68941;BME280;55982;51.476;7.552;2024-01-16T10:32:27;99026.25;;;2.60;100.00
68941;BME280;55982;51.476;7.552;2024-01-16T10:35:04;99025.31;;;2.67;100.00
68941;BME280;55982;51.476;7.552;2024-01-16T10:37:30;99028.38;;;2.90;100.00
68941;BME280;55982;51.476;7.552;2024-01-16T10:39:55;99014.66;;;2.88;100.00
68941;BME280;55982;51.476;7.552;2024-01-16T10:42:21;99021.00;;;2.66;100.00
68941;BME280;55982;51.476;7.552;2024-01-16T10:44:52;99014.69;;;2.85;100.00
68941;BME280;55982;51.476;7.552;2024-01-16T10:47:18;99013.91;;;2.80;100.00
68941;BME280;55982;51.476;7.552;2024-01-16T10:49:43;99006.09;;;2.83;100.00
68941;BME280;55982;51.476;7.552;2024-01-16T10:52:09;99010.22;;;2.95;100.00
68941;BME280;55982;51.476;7.552;2024-01-16T10:54:37;99012.44;;;3.17;100.00
68941;BME280;55982;51.476;7.552;2024-01-16T10:57:02;99009.38;;;2.94;100.00
68941;BME280;55982;51.476;7.552;2024-01-16T10:59:34;99018.44;;;3.19;100.00
68941;BME280;55982;51.476;7.552;2024-01-16T11:02:02;99021.75;;;3.27;100.00
68941;BME280;55982;51.476;7.552;2024-01-16T11:04:29;99018.06;;;3.40;100.00
68941;BME280;55982;51.476;7.552;2024-01-16T11:06:55;99017.84;;;3.54;100.00
68941;BME280;55982;51.476;7.552;2024-01-16T11:09:20;99011.75;;;3.56;100.00
68941;BME280;55982;51.476;7.552;2024-01-16T11:11:46;99016.66;;;3.71;100.00
68941;BME280;55982;51.476;7.552;2024-01-16T11:14:14;99021.78;;;3.75;100.00
68941;BME280;55982;51.476;7.552;2024-01-16T11:16:39;99002.28;;;4.00;100.00
68941;BME280;55982;51.476;7.552;2024-01-16T11:19:07;99007.78;;;3.85;100.00
68941;BME280;55982;51.476;7.552;2024-01-16T11:21:33;99000.53;;;4.02;100.00
68941;BME280;55982;51.476;7.552;2024-01-16T11:23:59;99007.59;;;3.94;100.00
68941;BME280;55982;51.476;7.552;2024-01-16T11:28:49;99001.59;;;4.33;100.00
68941;BME280;55982;51.476;7.552;2024-01-16T11:31:31;98997.97;;;4.40;100.00
68941;BME280;55982;51.476;7.552;2024-01-16T11:33:56;99007.75;;;4.27;100.00
68941;BME280;55982;51.476;7.552;2024-01-16T11:39:05;99002.66;;;4.24;100.00
68941;BME280;55982;51.476;7.552;2024-01-16T11:47:00;98997.34;;;3.89;100.00
68941;BME280;55982;51.476;7.552;2024-01-16T11:49:26;98994.38;;;3.64;100.00
68941;BME280;55982;51.476;7.552;2024-01-16T11:51:51;99010.56;;;3.28;100.00
68941;BME280;55982;51.476;7.552;2024-01-16T11:54:16;99001.97;;;3.26;100.00
68941;BME280;55982;51.476;7.552;2024-01-16T11:56:48;99005.31;;;3.31;100.00
68941;BME280;55982;51.476;7.552;2024-01-16T12:02:18;98999.84;;;3.49;100.00
68941;BME280;55982;51.476;7.552;2024-01-16T12:04:51;98992.84;;;3.54;100.00
68941;BME280;55982;51.476;7.552;2024-01-16T12:07:18;98991.47;;;3.35;100.00
68941;BME280;55982;51.476;7.552;2024-01-16T12:09:43;98986.75;;;3.08;100.00
68941;BME280;55982;51.476;7.552;2024-01-16T12:12:08;98976.69;;;2.93;100.00
68941;BME280;55982;51.476;7.552;2024-01-16T12:14:33;98978.16;;;3.09;100.00
68941;BME280;55982;51.476;7.552;2024-01-16T12:17:08;98972.03;;;3.15;100.00
68941;BME280;55982;51.476;7.552;2024-01-16T12:19:35;98967.41;;;3.32;100.00
68941;BME280;55982;51.476;7.552;2024-01-16T12:22:00;98969.03;;;3.82;100.00
68941;BME280;55982;51.476;7.552;2024-01-16T12:24:25;98962.53;;;4.04;100.00
68941;BME280;55982;51.476;7.552;2024-01-16T12:26:51;98948.78;;;4.02;100.00
68941;BME280;55982;51.476;7.552;2024-01-16T12:29:18;98955.72;;;4.00;100.00
68941;BME280;55982;51.476;7.552;2024-01-16T12:31:43;98952.88;;;3.70;100.00
68941;BME280;55982;51.476;7.552;2024-01-16T12:34:08;98966.38;;;3.85;100.00
68941;BME280;55982;51.476;7.552;2024-01-16T12:36:34;98952.81;;;3.73;100.00
68941;BME280;55982;51.476;7.552;2024-01-16T12:39:00;98950.97;;;3.79;100.00
68941;BME280;55982;51.476;7.552;2024-01-16T12:41:26;98932.72;;;3.43;100.00
68941;BME280;55982;51.476;7.552;2024-01-16T12:43:52;98938.34;;;3.19;100.00
68941;BME280;55982;51.476;7.552;2024-01-16T12:46:17;98935.38;;;3.39;100.00
68941;BME280;55982;51.476;7.552;2024-01-16T12:48:44;98927.72;;;3.34;100.00
68941;BME280;55982;51.476;7.552;2024-01-16T12:51:09;98935.38;;;3.39;100.00
68941;BME280;55982;51.476;7.552;2024-01-16T12:53:37;98929.75;;;3.17;100.00
68941;BME280;55982;51.476;7.552;2024-01-16T12:56:04;98931.47;;;3.18;100.00
68941;BME280;55982;51.476;7.552;2024-01-16T12:58:33;98931.66;;;3.09;100.00
68941;BME280;55982;51.476;7.552;2024-01-16T13:01:20;98928.06;;;3.16;100.00
68941;BME280;55982;51.476;7.552;2024-01-16T13:03:44;98934.56;;;2.90;100.00
68941;BME280;55982;51.476;7.552;2024-01-16T13:06:10;98937.53;;;2.67;100.00